createdAt,value
2022-08-27T00:01:16.395Z,98713.63
2022-08-27T00:03:45.086Z,98717.69
2022-08-27T00:06:14.703Z,98711.50
2022-08-27T00:08:45.651Z,98713.91
2022-08-27T00:11:13.188Z,98712.88
2022-08-27T00:13:40.191Z,98714.50
2022-08-27T00:16:09.960Z,98716.66
2022-08-27T00:18:38.483Z,98716.91
2022-08-27T00:21:05.068Z,98723.94
2022-08-27T00:23:34.542Z,98713.19
2022-08-27T00:26:01.415Z,98709.13
2022-08-27T00:28:29.894Z,98719.09
2022-08-27T00:30:56.874Z,98719.88
2022-08-27T00:33:24.511Z,98722.34
2022-08-27T00:35:51.621Z,98723.94
2022-08-27T00:38:19.400Z,98714.81
2022-08-27T00:40:46.772Z,98721.78
2022-08-27T00:43:13.815Z,98713.72
2022-08-27T00:45:45.133Z,98707.81
2022-08-27T00:48:15.983Z,98705.13
2022-08-27T00:50:52.637Z,98708.09
2022-08-27T00:53:23.159Z,98706.16
2022-08-27T00:55:55.080Z,98716.09
2022-08-27T00:58:33.886Z,98708.84
2022-08-27T01:01:01.985Z,98713.19
2022-08-27T01:03:28.606Z,98705.13
2022-08-27T01:05:59.084Z,98708.06
2022-08-27T01:08:29.386Z,98703.75
2022-08-27T01:10:58.414Z,98698.91
2022-08-27T01:13:58.711Z,98706.44
2022-08-27T01:16:27.012Z,98705.06
2022-08-27T01:18:55.838Z,98698.06
2022-08-27T01:21:32.879Z,98696.72
2022-08-27T01:24:21.816Z,98689.47
2022-08-27T01:26:49.377Z,98696.19
2022-08-27T01:29:17.480Z,98692.69
2022-08-27T01:31:44.265Z,98698.31
2022-08-27T01:34:10.882Z,98695.31
2022-08-27T01:36:37.415Z,98694.28
2022-08-27T01:39:04.171Z,98697.50
2022-08-27T01:41:31.974Z,98696.41
2022-08-27T01:43:58.637Z,98693.44
2022-08-27T01:46:27.780Z,98703.66
2022-08-27T01:48:55.273Z,98700.16
2022-08-27T01:51:22.338Z,98696.41
2022-08-27T01:53:48.961Z,98696.47
2022-08-27T01:56:15.596Z,98709.63
2022-08-27T01:58:43.653Z,98713.91
2022-08-27T02:01:14.386Z,98705.34
2022-08-27T02:03:41.307Z,98710.41
2022-08-27T02:06:10.717Z,98708.81
2022-08-27T02:08:37.776Z,98710.69
2022-08-27T02:11:05.124Z,98721.16
2022-08-27T02:13:31.786Z,98717.38
2022-08-27T02:15:58.407Z,98708.25
2022-08-27T02:18:25.056Z,98701.00
2022-08-27T02:20:51.712Z,98704.75
2022-08-27T02:23:18.713Z,98709.59
2022-08-27T02:25:48.519Z,98704.47
2022-08-27T02:28:15.192Z,98707.94
2022-08-27T02:30:41.773Z,98706.84
2022-08-27T02:33:10.473Z,98717.59
2022-08-27T02:35:43.072Z,98709.00
2022-08-27T02:38:10.820Z,98708.44
2022-08-27T02:40:37.679Z,98708.44
2022-08-27T02:43:05.014Z,98707.59
2022-08-27T02:45:31.665Z,98707.56
2022-08-27T02:47:58.241Z,98710.50
2022-08-27T02:50:27.430Z,98707.81
2022-08-27T02:52:54.779Z,98708.91
2022-08-27T02:55:22.526Z,98701.66
2022-08-27T02:57:49.369Z,98703.78
2022-08-27T03:00:19.010Z,98704.28
2022-08-27T03:02:45.670Z,98705.59
2022-08-27T03:05:13.204Z,98708.56
2022-08-27T03:07:40.258Z,98699.13
2022-08-27T03:10:07.828Z,98700.19
2022-08-27T03:12:36.320Z,98701.00
2022-08-27T03:15:08.276Z,98700.19
2022-08-27T03:17:53.517Z,98706.63
2022-08-27T03:20:20.177Z,98704.47
2022-08-27T03:22:46.977Z,98711.72
2022-08-27T03:25:16.077Z,98709.84
2022-08-27T03:27:42.756Z,98712.53
2022-08-27T03:30:19.339Z,98700.41
2022-08-27T03:32:46.561Z,98700.69
2022-08-27T03:35:14.437Z,98696.09
2022-08-27T03:37:41.237Z,98695.03
2022-08-27T03:40:08.322Z,98689.66
2022-08-27T03:42:35.395Z,98693.66
2022-08-27T03:45:02.013Z,98690.44
2022-08-27T03:47:28.562Z,98690.44
2022-08-27T03:49:55.357Z,98690.97
2022-08-27T03:52:22.346Z,98692.03
2022-08-27T03:54:48.869Z,98691.53
2022-08-27T03:57:15.477Z,98687.50
2022-08-27T03:59:41.993Z,98681.59
2022-08-27T04:02:08.681Z,98674.34
2022-08-27T04:04:35.593Z,98673.28
2022-08-27T04:07:02.142Z,98676.75
2022-08-27T04:09:28.646Z,98666.88
2022-08-27T04:11:55.383Z,98656.13
2022-08-27T04:14:26.376Z,98660.94
2022-08-27T04:16:54.961Z,98667.06
2022-08-27T04:19:26.974Z,98663.03
2022-08-27T04:21:54.012Z,98662.50
2022-08-27T04:24:20.482Z,98672.66
2022-08-27T04:26:47.754Z,98675.09
2022-08-27T04:29:14.256Z,98673.72
2022-08-27T04:31:40.815Z,98679.66
2022-08-27T04:34:07.753Z,98685.78
2022-08-27T04:36:34.373Z,98678.25
2022-08-27T04:39:01.232Z,98682.25
2022-08-27T04:41:28.969Z,98686.56
2022-08-27T04:43:57.724Z,98689.22
2022-08-27T04:46:29.782Z,98686.25
2022-08-27T04:48:57.888Z,98691.59
2022-08-27T04:51:25.513Z,98690.78
2022-08-27T04:53:52.629Z,98688.59
2022-08-27T04:56:22.310Z,98682.44
2022-08-27T04:58:50.598Z,98687.78
2022-08-27T05:01:19.615Z,98688.06
2022-08-27T05:03:46.449Z,98691.81
2022-08-27T05:06:13.314Z,98695.03
2022-08-27T05:08:41.068Z,98692.66
2022-08-27T05:11:10.917Z,98704.50
2022-08-27T05:13:38.080Z,98703.72
2022-08-27T05:16:07.692Z,98698.38
2022-08-27T05:18:42.263Z,98705.41
2022-08-27T05:21:27.336Z,98706.19
2022-08-27T05:23:56.492Z,98705.13
2022-08-27T05:26:23.364Z,98706.75
2022-08-27T05:28:50.192Z,98706.22
2022-08-27T05:31:17.882Z,98706.50
2022-08-27T05:33:44.514Z,98712.09
2022-08-27T05:36:17.618Z,98713.22
2022-08-27T05:38:44.470Z,98715.13
2022-08-27T05:41:14.910Z,98718.09
2022-08-27T05:43:45.373Z,98719.47
2022-08-27T05:46:16.961Z,98723.78
2022-08-27T05:48:44.776Z,98720.31
2022-08-27T05:51:25.648Z,98730.81
2022-08-27T05:54:04.549Z,98723.28
2022-08-27T05:56:36.156Z,98725.16
2022-08-27T05:59:21.362Z,98722.44
2022-08-27T06:01:50.153Z,98724.84
2022-08-27T06:04:18.238Z,98720.28
2022-08-27T06:06:46.049Z,98728.34
2022-08-27T06:09:16.647Z,98727.38
2022-08-27T06:11:43.545Z,98722.63
2022-08-27T06:14:10.377Z,98722.13
2022-08-27T06:16:38.250Z,98716.00
2022-08-27T06:19:05.565Z,98711.44
2022-08-27T06:21:32.364Z,98709.84
2022-08-27T06:23:58.908Z,98713.63
2022-08-27T06:26:26.800Z,98710.16
2022-08-27T06:28:54.160Z,98721.19
2022-08-27T06:31:26.607Z,98718.06
2022-08-27T06:33:58.065Z,98721.03
2022-08-27T06:36:27.564Z,98717.03
2022-08-27T06:38:54.568Z,98719.22
2022-08-27T06:41:24.115Z,98714.34
2022-08-27T06:43:51.871Z,98723.78
2022-08-27T06:46:25.166Z,98721.34
2022-08-27T06:48:56.451Z,98718.97
2022-08-27T06:51:26.281Z,98726.22
2022-08-27T06:53:55.207Z,98727.28
2022-08-27T06:56:22.500Z,98721.94
2022-08-27T06:58:53.390Z,98726.50
2022-08-27T07:01:24.204Z,98727.88
2022-08-27T07:03:51.009Z,98731.91
2022-08-27T07:06:18.127Z,98729.78
2022-08-27T07:08:52.998Z,98733.56
2022-08-27T07:11:20.967Z,98733.59
2022-08-27T07:13:48.521Z,98731.16
2022-08-27T07:16:17.799Z,98730.59
2022-08-27T07:18:45.411Z,98733.84
2022-08-27T07:21:12.627Z,98729.28
2022-08-27T07:23:39.883Z,98724.69
2022-08-27T07:26:10.949Z,98731.19
2022-08-27T07:28:39.159Z,98732.25
2022-08-27T07:31:09.050Z,98736.84
2022-08-27T07:33:37.233Z,98731.47
2022-08-27T07:36:06.220Z,98736.00
2022-08-27T07:38:33.352Z,98741.16
2022-08-27T07:41:04.913Z,98740.88
2022-08-27T07:43:50.294Z,98744.38
2022-08-27T07:46:24.198Z,98743.28
2022-08-27T07:48:51.224Z,98742.22
2022-08-27T07:51:20.652Z,98748.13
2022-08-27T07:53:47.665Z,98752.47
2022-08-27T07:56:14.213Z,98746.56
2022-08-27T07:58:41.409Z,98748.44
2022-08-27T08:01:08.044Z,98751.09
2022-08-27T08:03:35.096Z,98751.94
2022-08-27T08:06:08.003Z,98759.22
2022-08-27T08:08:36.240Z,98758.38
2022-08-27T08:11:06.288Z,98755.69
2022-08-27T08:13:32.943Z,98751.38
2022-08-27T08:15:59.472Z,98767.53
2022-08-27T08:18:27.365Z,98761.59
2022-08-27T08:20:58.964Z,98761.88
2022-08-27T08:23:26.286Z,98761.06
2022-08-27T08:25:52.849Z,98772.41
2022-08-27T08:28:19.342Z,98762.44
2022-08-27T08:30:47.687Z,98773.16
2022-08-27T08:33:14.264Z,98772.91
2022-08-27T08:35:41.340Z,98770.75
2022-08-27T08:38:09.082Z,98772.94
2022-08-27T08:40:40.987Z,98767.03
2022-08-27T08:43:18.425Z,98768.38
2022-08-27T08:45:45.887Z,98771.03
2022-08-27T08:48:17.854Z,98760.53
2022-08-27T08:51:24.153Z,98763.44
2022-08-27T08:54:07.007Z,98772.56
2022-08-27T08:56:55.088Z,98770.41
2022-08-27T08:59:30.028Z,98770.69
2022-08-27T09:01:58.661Z,98785.25
2022-08-27T09:04:27.095Z,98781.44
2022-08-27T09:07:11.448Z,98782.75
2022-08-27T09:10:14.404Z,98783.28
2022-08-27T09:12:41.485Z,98783.78
2022-08-27T09:15:12.472Z,98785.13
2022-08-27T09:17:41.831Z,98791.59
2022-08-27T09:20:13.230Z,98791.31
2022-08-27T09:23:22.210Z,98790.50
2022-08-27T09:25:48.796Z,98794.81
2022-08-27T09:28:39.367Z,98787.22
2022-08-27T09:31:09.730Z,98788.25
2022-08-27T09:33:46.066Z,98790.94
2022-08-27T09:36:24.159Z,98792.22
2022-08-27T09:38:58.573Z,98791.31
2022-08-27T09:44:09.368Z,98783.13
2022-08-27T09:46:36.250Z,98792.22
2022-08-27T09:49:14.318Z,98784.56
2022-08-27T09:51:44.115Z,98780.72
2022-08-27T09:54:11.881Z,98779.09
2022-08-27T09:56:41.876Z,98782.91
2022-08-27T09:59:08.310Z,98778.97
2022-08-27T10:01:49.965Z,98779.47
2022-08-27T10:04:24.084Z,98773.47
2022-08-27T10:06:51.678Z,98774.22
2022-08-27T10:09:35.489Z,98771.97
2022-08-27T10:12:10.513Z,98772.09
2022-08-27T10:14:58.836Z,98766.00
2022-08-27T10:17:36.412Z,98764.22
2022-08-27T10:20:30.301Z,98769.34
2022-08-27T10:23:10.546Z,98772.28
2022-08-27T10:25:42.500Z,98769.00
2022-08-27T10:28:40.291Z,98775.72
2022-08-27T10:31:25.160Z,98783.47
2022-08-27T10:34:01.274Z,98771.50
2022-08-27T10:36:57.150Z,98771.31
2022-08-27T10:39:45.440Z,98767.16
2022-08-27T10:42:26.204Z,98759.06
2022-08-27T10:45:11.546Z,98753.00
2022-08-27T10:48:25.603Z,98763.28
2022-08-27T10:51:08.635Z,98758.78
2022-08-27T10:53:46.228Z,98762.44
2022-08-27T10:56:30.687Z,98767.34
2022-08-27T10:59:21.517Z,98760.81
2022-08-27T11:02:20.414Z,98755.41
2022-08-27T11:04:51.272Z,98761.53
2022-08-27T11:07:24.564Z,98758.97
2022-08-27T11:09:58.528Z,98765.31
2022-08-27T11:12:38.916Z,98759.91
2022-08-27T11:15:13.025Z,98759.56
2022-08-27T11:18:04.688Z,98758.47
2022-08-27T11:20:40.760Z,98762.47
2022-08-27T11:23:12.229Z,98757.78
2022-08-27T11:25:50.483Z,98756.22
2022-08-27T11:28:21.314Z,98758.94
2022-08-27T11:31:11.481Z,98758.47
2022-08-27T11:33:47.362Z,98754.97
2022-08-27T11:36:23.175Z,98756.00
2022-08-27T11:39:04.896Z,98759.88
2022-08-27T11:41:45.539Z,98753.91
2022-08-27T11:44:14.950Z,98753.63
2022-08-27T11:46:48.511Z,98752.44
2022-08-27T11:49:40.993Z,98752.91
2022-08-27T11:52:09.095Z,98755.97
2022-08-27T11:55:10.994Z,98750.78
2022-08-27T11:57:38.300Z,98756.38
2022-08-27T12:00:20.194Z,98757.06
2022-08-27T12:03:05.453Z,98750.91
2022-08-27T12:05:37.943Z,98753.16
2022-08-27T12:08:22.956Z,98754.72
2022-08-27T12:11:34.437Z,98748.59
2022-08-27T12:14:14.592Z,98746.41
2022-08-27T12:16:57.664Z,98743.50
2022-08-27T12:19:59.163Z,98739.38
2022-08-27T12:23:13.417Z,98745.22
2022-08-27T12:25:39.978Z,98739.28
2022-08-27T12:28:09.197Z,98729.22
2022-08-27T12:30:39.135Z,98733.75
2022-08-27T12:33:27.068Z,98722.69
2022-08-27T12:35:56.345Z,98727.28
2022-08-27T12:38:34.894Z,98718.69
2022-08-27T12:41:09.193Z,98724.00
2022-08-27T12:43:38.332Z,98716.88
2022-08-27T12:46:11.005Z,98719.09
2022-08-27T12:48:42.370Z,98718.09
2022-08-27T12:51:14.041Z,98719.09
2022-08-27T12:54:08.341Z,98712.53
2022-08-27T12:57:14.009Z,98699.78
2022-08-27T13:00:12.908Z,98712.00
2022-08-27T13:02:49.607Z,98701.25
2022-08-27T13:05:22.621Z,98700.25
2022-08-27T13:07:51.183Z,98699.47
2022-08-27T13:10:20.548Z,98697.09
2022-08-27T13:12:48.696Z,98705.09
2022-08-27T13:15:19.276Z,98697.25
2022-08-27T13:17:47.368Z,98689.16
2022-08-27T13:20:14.440Z,98685.75
2022-08-27T13:22:43.466Z,98692.06
2022-08-27T13:25:20.988Z,98681.94
2022-08-27T13:27:56.994Z,98688.72
2022-08-27T13:30:35.702Z,98689.94
2022-08-27T13:33:05.083Z,98695.16
2022-08-27T13:35:32.494Z,98687.00
2022-08-27T13:38:01.109Z,98685.84
2022-08-27T13:40:37.016Z,98678.91
2022-08-27T13:43:10.473Z,98682.66
2022-08-27T13:45:41.841Z,98679.91
2022-08-27T13:48:12.531Z,98676.94
2022-08-27T13:50:49.387Z,98673.19
2022-08-27T13:53:39.946Z,98675.78
2022-08-27T13:56:07.276Z,98667.69
2022-08-27T13:58:35.478Z,98663.19
2022-08-27T14:01:14.938Z,98664.22
2022-08-27T14:03:50.859Z,98665.03
2022-08-27T14:06:45.219Z,98659.09
2022-08-27T14:09:28.587Z,98654.94
2022-08-27T14:12:03.394Z,98658.31
2022-08-27T14:14:35.841Z,98657.91
2022-08-27T14:17:04.509Z,98663.13
2022-08-27T14:19:36.937Z,98663.50
2022-08-27T14:22:04.353Z,98668.50
2022-08-27T14:24:30.919Z,98660.25
2022-08-27T14:27:07.758Z,98665.00
2022-08-27T14:29:34.338Z,98653.25
2022-08-27T14:32:00.814Z,98656.97
2022-08-27T14:34:27.373Z,98663.03
2022-08-27T14:36:54.981Z,98669.91
2022-08-27T14:39:21.979Z,98671.28
2022-08-27T14:41:53.108Z,98671.69
2022-08-27T14:44:21.200Z,98660.06
2022-08-27T14:46:47.857Z,98666.56
2022-08-27T14:49:22.024Z,98655.88
2022-08-27T14:51:49.055Z,98660.19
2022-08-27T14:54:15.606Z,98668.53
2022-08-27T14:56:42.108Z,98663.91
2022-08-27T14:59:08.695Z,98663.28
2022-08-27T15:01:38.058Z,98667.00
2022-08-27T15:04:06.248Z,98669.34
2022-08-27T15:06:32.811Z,98654.28
2022-08-27T15:09:00.360Z,98662.13
2022-08-27T15:11:31.408Z,98664.44
2022-08-27T15:14:00.614Z,98671.41
2022-08-27T15:16:33.180Z,98671.72
2022-08-27T15:19:01.566Z,98671.53
2022-08-27T15:21:30.438Z,98669.00
2022-08-27T15:24:00.647Z,98667.09
2022-08-27T15:26:28.136Z,98660.72
2022-08-27T15:28:55.101Z,98661.06
2022-08-27T15:31:21.802Z,98663.88
2022-08-27T15:33:48.421Z,98664.50
2022-08-27T15:36:15.088Z,98657.00
2022-08-27T15:38:41.628Z,98664.63
2022-08-27T15:41:10.232Z,98653.47
2022-08-27T15:43:37.886Z,98661.28
2022-08-27T15:46:05.397Z,98658.09
2022-08-27T15:48:32.072Z,98661.44
2022-08-27T15:51:04.717Z,98666.72
2022-08-27T15:53:31.315Z,98657.69
2022-08-27T15:55:58.072Z,98653.06
2022-08-27T15:58:24.592Z,98656.38
2022-08-27T16:01:01.587Z,98655.94
2022-08-27T16:03:35.442Z,98653.41
2022-08-27T16:06:05.058Z,98653.59
2022-08-27T16:08:32.435Z,98657.13
2022-08-27T16:11:03.858Z,98662.41
2022-08-27T16:13:31.011Z,98662.59
2022-08-27T16:15:57.919Z,98655.56
2022-08-27T16:18:31.613Z,98656.31
2022-08-27T16:21:01.065Z,98656.25
2022-08-27T16:23:28.756Z,98657.00
2022-08-27T16:25:56.079Z,98664.75
2022-08-27T16:28:24.039Z,98658.22
2022-08-27T16:30:52.849Z,98660.38
2022-08-27T16:33:20.805Z,98659.63
2022-08-27T16:35:48.295Z,98665.28
2022-08-27T16:38:15.156Z,98666.63
2022-08-27T16:40:44.819Z,98675.84
2022-08-27T16:43:14.731Z,98669.56
2022-08-27T16:45:41.952Z,98668.47
2022-08-27T16:48:27.073Z,98667.91
2022-08-27T16:50:53.587Z,98659.69
2022-08-27T16:53:22.084Z,98669.28
2022-08-27T16:55:50.824Z,98665.38
2022-08-27T16:58:24.193Z,98674.56
2022-08-27T17:00:56.747Z,98680.16
2022-08-27T17:03:25.096Z,98682.38
2022-08-27T17:05:52.251Z,98678.94
2022-08-27T17:08:21.736Z,98684.25
2022-08-27T17:10:55.363Z,98681.56
2022-08-27T17:13:28.354Z,98677.69
2022-08-27T17:15:56.114Z,98689.41
2022-08-27T17:18:27.197Z,98687.00
2022-08-27T17:20:55.359Z,98686.47
2022-08-27T17:23:29.501Z,98686.78
2022-08-27T17:25:56.236Z,98693.25
2022-08-27T17:28:22.734Z,98694.66
2022-08-27T17:30:49.286Z,98697.16
2022-08-27T17:33:38.910Z,98694.16
2022-08-27T17:36:07.523Z,98706.66
2022-08-27T17:38:37.433Z,98705.47
2022-08-27T17:41:16.212Z,98706.75
2022-08-27T17:43:42.832Z,98707.22
2022-08-27T17:46:09.654Z,98710.88
2022-08-27T17:48:36.261Z,98716.06
2022-08-27T17:51:03.923Z,98723.00
2022-08-27T17:53:30.530Z,98719.38
2022-08-27T17:55:57.017Z,98726.47
2022-08-27T17:58:23.515Z,98728.75
2022-08-27T18:00:50.036Z,98726.94
2022-08-27T18:03:20.014Z,98725.69
2022-08-27T18:05:48.031Z,98728.22
2022-08-27T18:08:14.945Z,98726.97
2022-08-27T18:10:42.646Z,98744.25
2022-08-27T18:13:10.456Z,98746.44
2022-08-27T18:15:41.098Z,98748.91
2022-08-27T18:18:09.915Z,98754.03
2022-08-27T18:20:36.992Z,98753.81
2022-08-27T18:23:08.319Z,98755.97
2022-08-27T18:25:37.572Z,98754.91
2022-08-27T18:28:07.642Z,98763.78
2022-08-27T18:30:34.935Z,98756.19
2022-08-27T18:33:02.507Z,98763.75
2022-08-27T18:35:31.851Z,98771.81
2022-08-27T18:37:58.849Z,98781.75
2022-08-27T18:40:30.450Z,98778.25
2022-08-27T18:42:57.742Z,98788.72
2022-08-27T18:45:28.643Z,98779.84
2022-08-27T18:47:59.126Z,98784.88
2022-08-27T18:50:26.621Z,98788.09
2022-08-27T18:52:55.013Z,98787.28
2022-08-27T18:55:25.648Z,98792.91
2022-08-27T18:57:52.519Z,98808.97
2022-08-27T19:00:20.189Z,98810.06
2022-08-27T19:02:52.401Z,98814.91
2022-08-27T19:05:25.103Z,98808.69
2022-08-27T19:07:51.929Z,98818.63
2022-08-27T19:10:19.254Z,98815.13
2022-08-27T19:12:47.356Z,98817.00
2022-08-27T19:15:14.234Z,98821.28
2022-08-27T19:17:43.560Z,98824.28
2022-08-27T19:20:11.466Z,98821.06
2022-08-27T19:22:38.339Z,98821.59
2022-08-27T19:25:07.271Z,98827.25
2022-08-27T19:27:34.430Z,98831.00
2022-08-27T19:30:00.897Z,98840.13
2022-08-27T19:32:27.447Z,98836.91
2022-08-27T19:34:53.967Z,98839.59
2022-08-27T19:37:25.349Z,98835.03
2022-08-27T19:39:52.596Z,98842.28
2022-08-27T19:42:19.184Z,98842.53
2022-08-27T19:44:45.866Z,98843.34
2022-08-27T19:47:14.614Z,98838.53
2022-08-27T19:49:41.913Z,98834.75
2022-08-27T19:52:08.766Z,98838.25
2022-08-27T19:54:43.146Z,98838.53
2022-08-27T19:57:18.895Z,98842.50
2022-08-27T19:59:45.646Z,98846.00
2022-08-27T20:02:12.565Z,98843.59
2022-08-27T20:04:56.022Z,98842.50
2022-08-27T20:07:26.537Z,98841.69
2022-08-27T20:09:53.054Z,98847.88
2022-08-27T20:12:21.738Z,98850.56
2022-08-27T20:14:51.201Z,98854.88
2022-08-27T20:17:18.603Z,98849.75
2022-08-27T20:19:45.380Z,98856.75
2022-08-27T20:22:13.120Z,98864.31
2022-08-27T20:24:39.682Z,98858.66
2022-08-27T20:27:06.223Z,98868.59
2022-08-27T20:29:33.172Z,98864.84
2022-08-27T20:32:00.215Z,98871.84
2022-08-27T20:34:29.396Z,98871.06
2022-08-27T20:36:56.083Z,98870.22
2022-08-27T20:39:22.594Z,98871.56
2022-08-27T20:41:49.090Z,98874.78
2022-08-27T20:44:16.997Z,98873.75
2022-08-27T20:46:45.568Z,98880.44
2022-08-27T20:49:17.513Z,98877.22
2022-08-27T20:51:51.139Z,98869.97
2022-08-27T20:54:30.212Z,98871.84
2022-08-27T20:56:58.799Z,98872.66
2022-08-27T20:59:44.311Z,98872.09
2022-08-27T21:02:12.716Z,98877.44
2022-08-27T21:04:48.363Z,98875.03
2022-08-27T21:07:16.842Z,98879.34
2022-08-27T21:09:55.502Z,98873.69
2022-08-27T21:12:25.873Z,98879.34
2022-08-27T21:14:55.667Z,98874.53
2022-08-27T21:17:24.445Z,98874.28
2022-08-27T21:19:51.071Z,98881.03
2022-08-27T21:22:18.068Z,98876.16
2022-08-27T21:24:47.086Z,98871.56
2022-08-27T21:27:17.885Z,98868.31
2022-08-27T21:29:45.045Z,98870.19
2022-08-27T21:32:12.081Z,98866.16
2022-08-27T21:34:38.638Z,98872.03
2022-08-27T21:37:05.182Z,98872.84
2022-08-27T21:39:33.110Z,98873.38
2022-08-27T21:42:01.488Z,98867.78
2022-08-27T21:44:29.787Z,98880.66
2022-08-27T21:46:56.780Z,98869.38
2022-08-27T21:49:23.596Z,98871.78
2022-08-27T21:51:50.138Z,98871.53
2022-08-27T21:54:16.671Z,98863.19
2022-08-27T21:56:43.266Z,98877.91
2022-08-27T21:59:10.055Z,98869.22
2022-08-27T22:01:36.696Z,98866.72
2022-08-27T22:04:03.670Z,98865.88
2022-08-27T22:06:30.287Z,98866.38
2022-08-27T22:08:56.876Z,98864.72
2022-08-27T22:11:24.474Z,98862.28
2022-08-27T22:13:52.413Z,98859.03
2022-08-27T22:16:19.405Z,98855.50
2022-08-27T22:18:46.063Z,98851.94
2022-08-27T22:21:13.394Z,98846.00
2022-08-27T22:23:42.243Z,98851.38
2022-08-27T22:26:12.044Z,98844.41
2022-08-27T22:28:38.652Z,98838.47
2022-08-27T22:31:07.288Z,98844.03
2022-08-27T22:33:34.109Z,98845.28
2022-08-27T22:36:00.640Z,98851.16
2022-08-27T22:38:27.182Z,98849.28
2022-08-27T22:40:53.696Z,98845.28
2022-08-27T22:43:20.334Z,98847.72
2022-08-27T22:45:46.865Z,98846.91
2022-08-27T22:48:13.676Z,98849.59
2022-08-27T22:50:40.614Z,98841.53
2022-08-27T22:53:07.480Z,98846.34
2022-08-27T22:55:34.505Z,98854.91
2022-08-27T22:58:02.073Z,98845.19
2022-08-27T23:00:35.328Z,98844.31
2022-08-27T23:03:05.381Z,98852.56
2022-08-27T23:05:41.896Z,98850.38
2022-08-27T23:08:11.045Z,98845.84
2022-08-27T23:10:38.508Z,98853.31
2022-08-27T23:13:06.859Z,98861.06
2022-08-27T23:15:33.526Z,98856.47
2022-08-27T23:18:01.441Z,98850.78
2022-08-27T23:20:29.529Z,98859.03
2022-08-27T23:22:56.945Z,98853.06
2022-08-27T23:25:44.037Z,98856.50
2022-08-27T23:28:14.867Z,98852.88
2022-08-27T23:30:42.910Z,98858.25
2022-08-27T23:33:09.759Z,98855.03
2022-08-27T23:35:36.442Z,98859.00
2022-08-27T23:38:03.715Z,98859.50
2022-08-27T23:40:30.393Z,98867.47
2022-08-27T23:42:57.040Z,98854.81
2022-08-27T23:45:25.863Z,98868.22
2022-08-27T23:47:52.585Z,98868.50
2022-08-27T23:50:20.360Z,98869.78
2022-08-27T23:52:49.707Z,98865.22
2022-08-27T23:55:16.276Z,98867.91
2022-08-27T23:57:43.407Z,98862.75
